Worthington, Missouri
Current Conditions -  °F | °C
As of 7:35 AM on Friday 31 Oct 2014 (Local Time) from KTVK Reporting Station
Clear Clear  
Wind Chill: 20°   Ceiling: Unl
Heat Index: 30°   Visibility: 10mi
Dew Point: 18°   Wind: 13mph
Humidity: 60%   Direction: 350°N
Pressure: 30.39"   Gusts: 22mph
Location:  40.41°N, 92.69°W
Report Text: KTVK 311235Z AUTO 35011G19KT 10SM CLR M01/M08 A3039 RMK AO2
Loading
Personal Weather Stations






























Interactive Weather Map New forecast layout! Learn more

10-Day Weather Forecast

Advertisements
Track Severe Weather on mobile